Time;durP1;ratioP1;P1;durP2;ratioP2;P2;SDS_P1;SDS_P2;PMS_P1;PMS_P2;Temp;Humidity;BMP_temperature;BMP_pressure;BME280_temperature;BME280_humidity;BME280_pressure;Samples;Min_cycle;Max_cycle;Signal;HPM_P1;HPM_P2
2021/05/09 00:00:11;;;;;;;5.45;1.42;;;17.00;96.70;;;;;;5089124;27;20522;-74
2021/05/09 00:02:39;;;;;;;4.30;1.20;;;17.20;96.70;;;;;;5106374;27;20047;-74
2021/05/09 00:05:09;;;;;;;3.88;1.42;;;17.50;96.70;;;;;;5098539;28;20832;-75
2021/05/09 00:07:37;;;;;;;3.75;1.05;;;17.50;96.70;;;;;;5107694;27;20114;-74
2021/05/09 00:10:07;;;;;;;4.65;1.85;;;17.60;96.70;;;;;;5107182;27;20119;-74
2021/05/09 00:12:35;;;;;;;5.18;1.50;;;17.60;96.70;;;;;;5104286;27;20032;-74
2021/05/09 00:15:04;;;;;;;3.45;1.55;;;17.30;96.70;;;;;;5103045;27;20059;-74
2021/05/09 00:17:37;;;;;;;4.60;1.55;;;17.20;96.70;;;;;;5101168;27;20109;-74
2021/05/09 00:20:07;;;;;;;6.22;1.80;;;17.20;96.70;;;;;;5109038;27;20070;-74
2021/05/09 00:22:35;;;;;;;3.78;1.55;;;17.00;96.70;;;;;;5095361;28;20051;-74
2021/05/09 00:25:04;;;;;;;5.10;1.40;;;17.20;96.70;;;;;;5078126;28;20493;-74
2021/05/09 00:27:32;;;;;;;4.93;1.48;;;17.30;96.70;;;;;;5100343;27;20207;-74
2021/05/09 00:30:04;;;;;;;6.47;1.55;;;17.40;96.70;;;;;;5102348;27;20536;-74
2021/05/09 00:32:35;;;;;;;3.95;1.48;;;17.30;96.70;;;;;;5091188;27;20042;-74
2021/05/09 00:35:06;;;;;;;5.53;1.38;;;17.40;96.70;;;;;;5105252;27;20040;-74
2021/05/09 00:37:36;;;;;;;4.78;1.55;;;17.40;96.70;;;;;;5085360;28;20419;-74
2021/05/09 00:40:07;;;;;;;4.88;1.25;;;17.40;96.70;;;;;;5099926;27;20036;-74
2021/05/09 00:42:37;;;;;;;4.80;1.55;;;17.40;96.70;;;;;;5102103;27;20047;-74
2021/05/09 00:45:08;;;;;;;4.53;1.38;;;17.40;96.70;;;;;;5103762;27;20036;-74
2021/05/09 00:47:38;;;;;;;4.95;1.55;;;17.10;96.70;;;;;;5102124;28;20371;-74
2021/05/09 00:50:08;;;;;;;5.32;1.55;;;16.70;96.70;;;;;;5103582;27;20088;-74
2021/05/09 00:52:39;;;;;;;4.85;1.20;;;16.40;96.70;;;;;;5102352;27;20051;-74
2021/05/09 00:55:11;;;;;;;2.72;1.00;;;16.20;96.70;;;;;;5105056;27;20039;-74
2021/05/09 00:57:42;;;;;;;3.60;1.17;;;16.10;96.70;;;;;;5096345;27;20043;-74
2021/05/09 01:00:15;;;;;;;3.30;1.20;;;16.20;96.70;;;;;;5101765;27;20416;-74
2021/05/09 01:02:46;;;;;;;6.68;1.60;;;16.40;96.70;;;;;;5099616;28;20458;-74
2021/05/09 01:05:16;;;;;;;6.38;1.30;;;16.60;96.70;;;;;;5109058;27;20031;-74
2021/05/09 01:07:47;;;;;;;4.32;1.15;;;16.70;96.70;;;;;;5100596;27;20318;-74
2021/05/09 01:10:17;;;;;;;4.60;1.48;;;16.80;96.70;;;;;;5085980;27;20049;-74
2021/05/09 01:12:47;;;;;;;2.17;1.15;;;16.60;96.70;;;;;;5100131;27;20150;-74
2021/05/09 01:15:19;;;;;;;5.60;1.35;;;16.70;96.70;;;;;;5098424;27;20139;-74
2021/05/09 01:17:48;;;;;;;2.50;1.00;;;16.50;96.70;;;;;;5106303;27;20050;-74
2021/05/09 01:20:39;;;;;;;3.83;1.08;;;16.40;96.70;;;;;;5103326;27;20047;-74
2021/05/09 01:23:08;;;;;;;5.00;1.05;;;16.00;96.70;;;;;;5103489;27;20043;-74
2021/05/09 01:25:39;;;;;;;2.55;0.98;;;16.10;96.70;;;;;;5105355;27;20130;-74
2021/05/09 01:28:09;;;;;;;4.82;1.20;;;16.10;96.70;;;;;;5101858;27;20040;-74
2021/05/09 01:30:38;;;;;;;3.70;1.23;;;16.20;96.70;;;;;;5101500;28;20039;-74
2021/05/09 01:33:08;;;;;;;3.17;1.17;;;16.30;96.70;;;;;;5104451;27;20416;-74
2021/05/09 01:35:39;;;;;;;4.47;1.48;;;16.40;96.70;;;;;;5101790;27;20051;-74
2021/05/09 01:38:08;;;;;;;3.33;0.93;;;16.20;96.70;;;;;;5106462;27;20039;-74
2021/05/09 01:40:37;;;;;;;4.28;1.17;;;16.30;96.70;;;;;;5084943;28;20134;-74
2021/05/09 01:43:10;;;;;;;2.80;1.20;;;16.30;96.70;;;;;;5110083;27;20032;-76
2021/05/09 01:45:42;;;;;;;2.65;1.00;;;16.40;96.70;;;;;;5103364;27;20646;-74
2021/05/09 01:48:12;;;;;;;3.10;1.02;;;16.40;96.70;;;;;;5101187;27;20052;-74
2021/05/09 01:50:43;;;;;;;3.65;1.27;;;16.50;96.70;;;;;;5099175;28;20522;-74
2021/05/09 01:53:13;;;;;;;4.75;1.50;;;16.20;96.70;;;;;;5108532;27;20700;-74
2021/05/09 01:55:43;;;;;;;3.15;1.20;;;16.10;96.70;;;;;;5101106;28;20202;-74
2021/05/09 01:58:35;;;;;;;2.45;1.08;;;16.10;96.70;;;;;;5096036;27;20043;-74
2021/05/09 02:01:12;;;;;;;3.90;1.50;;;16.20;96.70;;;;;;5099814;27;20042;-74
2021/05/09 02:03:54;;;;;;;4.60;1.45;;;16.30;96.70;;;;;;5101210;27;20748;-74
2021/05/09 02:06:28;;;;;;;5.30;1.73;;;16.20;96.70;;;;;;5102353;27;20042;-74
2021/05/09 02:08:58;;;;;;;4.00;1.48;;;16.20;96.70;;;;;;5103989;27;20496;-74
2021/05/09 02:11:38;;;;;;;2.53;1.33;;;16.30;96.70;;;;;;5102238;27;20039;-74
2021/05/09 02:14:17;;;;;;;3.40;1.48;;;16.30;96.70;;;;;;5098928;28;20512;-74
2021/05/09 02:16:52;;;;;;;2.58;1.50;;;16.30;96.70;;;;;;5100732;27;20302;-74
2021/05/09 02:19:23;;;;;;;4.15;1.42;;;16.30;96.70;;;;;;5105268;27;20435;-74
2021/05/09 02:21:54;;;;;;;3.80;1.65;;;16.30;96.70;;;;;;5107086;27;20553;-74
2021/05/09 02:24:25;;;;;;;4.05;1.23;;;16.30;96.70;;;;;;5100172;28;20400;-74
2021/05/09 02:26:54;;;;;;;4.78;1.70;;;16.30;96.70;;;;;;5099603;27;20267;-75
2021/05/09 02:29:24;;;;;;;5.93;1.65;;;16.20;96.70;;;;;;5099087;27;20047;-74
2021/05/09 02:31:54;;;;;;;5.00;1.55;;;16.20;96.70;;;;;;5101283;27;20031;-74
2021/05/09 02:34:30;;;;;;;;;;;16.30;96.70;;;;;;5092082;28;20078;-74
2021/05/09 02:37:03;;;;;;;5.13;1.02;;;16.20;96.70;;;;;;5098842;27;19930;-74
2021/05/09 02:39:34;;;;;;;4.80;1.50;;;16.10;96.70;;;;;;5100989;28;20479;-74
2021/05/09 02:42:04;;;;;;;1.60;0.88;;;16.20;96.70;;;;;;5099595;28;20075;-74
2021/05/09 02:44:34;;;;;;;2.67;0.85;;;16.10;96.70;;;;;;5097904;27;20050;-73
2021/05/09 02:47:04;;;;;;;2.60;1.20;;;16.10;96.70;;;;;;5099843;28;20574;-74
2021/05/09 02:49:58;;;;;;;4.15;1.45;;;16.10;96.70;;;;;;5094315;28;20035;-74
2021/05/09 02:52:28;;;;;;;5.13;1.30;;;16.10;96.70;;;;;;5093661;28;20054;-74
2021/05/09 02:54:59;;;;;;;5.35;1.45;;;16.10;96.70;;;;;;5102666;28;20031;-74
2021/05/09 02:57:28;;;;;;;5.13;1.10;;;15.80;96.70;;;;;;5100952;28;20087;-74
2021/05/09 02:59:57;;;;;;;3.85;1.23;;;15.60;96.70;;;;;;5107051;28;20031;-74
2021/05/09 03:02:27;;;;;;;3.65;1.27;;;15.50;96.70;;;;;;5096414;28;20032;-74
2021/05/09 03:04:58;;;;;;;3.00;1.42;;;15.40;96.70;;;;;;5100067;28;20043;-74
2021/05/09 03:07:28;;;;;;;3.00;1.10;;;15.20;96.70;;;;;;5103162;28;20051;-74
2021/05/09 03:09:58;;;;;;;2.70;1.45;;;15.10;96.70;;;;;;5103617;28;20139;-74
2021/05/09 03:12:28;;;;;;;2.28;1.10;;;15.20;96.70;;;;;;5102689;27;20050;-74
2021/05/09 03:14:59;;;;;;;3.53;1.08;;;15.50;96.70;;;;;;5084846;28;20730;-74
2021/05/09 03:17:34;;;;;;;6.40;1.45;;;15.60;96.70;;;;;;5101361;28;20039;-74
2021/05/09 03:20:15;;;;;;;2.03;1.20;;;15.70;96.70;;;;;;5103427;28;20042;-74
2021/05/09 03:23:00;;;;;;;2.30;0.95;;;15.50;96.70;;;;;;5099940;28;20028;-74
2021/05/09 03:25:41;;;;;;;3.40;1.17;;;15.50;96.70;;;;;;5099209;28;20413;-74
2021/05/09 03:28:10;;;;;;;3.13;1.20;;;15.50;96.70;;;;;;5104129;28;20031;-74
2021/05/09 03:30:40;;;;;;;5.57;1.35;;;15.50;96.70;;;;;;5081267;28;20148;-74
2021/05/09 03:33:09;;;;;;;2.28;1.48;;;15.50;96.70;;;;;;5103589;28;20143;-74
2021/05/09 03:35:38;;;;;;;3.83;1.00;;;15.30;96.70;;;;;;5105057;28;20509;-74
2021/05/09 03:38:09;;;;;;;3.90;1.05;;;15.10;96.70;;;;;;5102034;27;20531;-74
2021/05/09 03:40:40;;;;;;;2.50;1.00;;;15.10;96.70;;;;;;5098621;28;20031;-74
2021/05/09 03:43:09;;;;;;;3.25;1.10;;;15.20;96.70;;;;;;5098827;28;20130;-74
2021/05/09 03:45:38;;;;;;;3.83;1.08;;;15.20;96.70;;;;;;5107213;27;20410;-74
2021/05/09 03:48:08;;;;;;;3.63;1.45;;;15.20;96.70;;;;;;5099458;28;20134;-74
2021/05/09 03:50:37;;;;;;;5.53;1.20;;;15.30;96.70;;;;;;5100398;28;20040;-74
2021/05/09 03:53:08;;;;;;;4.03;1.17;;;15.40;96.70;;;;;;5093285;28;20195;-74
2021/05/09 03:55:37;;;;;;;4.10;1.35;;;15.40;96.70;;;;;;5097021;28;20517;-74
2021/05/09 03:58:06;;;;;;;4.22;1.17;;;15.30;96.70;;;;;;5097142;28;20136;-73
2021/05/09 04:00:35;;;;;;;3.08;1.10;;;15.30;96.70;;;;;;5102027;27;20415;-74
2021/05/09 04:03:17;;;;;;;4.38;1.33;;;15.40;96.70;;;;;;5101951;27;20520;-73
2021/05/09 04:05:48;;;;;;;5.22;1.63;;;15.30;96.70;;;;;;5099654;27;20051;-74
2021/05/09 04:08:18;;;;;;;4.22;1.50;;;15.20;96.70;;;;;;5104696;27;20040;-74
2021/05/09 04:10:46;;;;;;;3.92;1.10;;;15.30;96.70;;;;;;5102784;28;20036;-74
2021/05/09 04:13:14;;;;;;;3.53;1.00;;;15.30;96.70;;;;;;5102092;27;20386;-75
2021/05/09 04:15:42;;;;;;;3.45;1.13;;;15.30;96.70;;;;;;5103326;27;20699;-73
2021/05/09 04:18:10;;;;;;;2.90;1.00;;;15.30;96.70;;;;;;5102862;27;20043;-74
2021/05/09 04:20:41;;;;;;;5.70;1.20;;;15.40;96.70;;;;;;5106426;27;20435;-74
2021/05/09 04:23:13;;;;;;;2.50;1.13;;;15.50;96.70;;;;;;5101297;27;20044;-73
2021/05/09 04:25:48;;;;;;;3.72;1.10;;;15.50;96.70;;;;;;5107504;27;20040;-74
2021/05/09 04:28:17;;;;;;;4.32;1.42;;;15.40;96.70;;;;;;5106492;27;20420;-74
2021/05/09 04:30:45;;;;;;;2.83;1.00;;;15.50;96.70;;;;;;5102350;27;20040;-74
2021/05/09 04:33:13;;;;;;;2.90;1.10;;;15.50;96.70;;;;;;5108057;27;20063;-74
2021/05/09 04:35:43;;;;;;;4.82;1.10;;;15.40;96.70;;;;;;5103725;27;20485;-74
2021/05/09 04:38:11;;;;;;;6.28;1.67;;;15.40;96.70;;;;;;5090087;28;20043;-74
2021/05/09 04:40:40;;;;;;;3.78;1.05;;;15.30;96.70;;;;;;5104883;27;20035;-74
2021/05/09 04:43:10;;;;;;;3.78;1.10;;;15.10;96.70;;;;;;5105440;27;20046;-74
2021/05/09 04:45:38;;;;;;;3.90;1.00;;;15.20;96.70;;;;;;5087144;28;20626;-74
2021/05/09 04:48:07;;;;;;;4.65;1.42;;;15.20;96.70;;;;;;5101993;28;20412;-74
2021/05/09 04:50:34;;;;;;;4.20;0.88;;;15.20;96.70;;;;;;5104802;27;20054;-74
2021/05/09 04:53:02;;;;;;;3.92;1.27;;;15.30;96.70;;;;;;5102380;28;20596;-74
2021/05/09 04:55:30;;;;;;;3.78;1.20;;;15.40;96.70;;;;;;5105406;27;20426;-74
2021/05/09 04:58:00;;;;;;;4.47;1.33;;;15.60;96.70;;;;;;5099539;28;20519;-74
2021/05/09 05:00:29;;;;;;;4.80;1.48;;;15.70;96.70;;;;;;5107391;27;20122;-74
2021/05/09 05:02:57;;;;;;;4.47;1.20;;;15.60;96.70;;;;;;5101760;28;20031;-74
2021/05/09 05:05:24;;;;;;;5.80;1.52;;;15.60;96.70;;;;;;5088476;27;20416;-74
2021/05/09 05:07:52;;;;;;;5.32;1.50;;;15.50;96.70;;;;;;5100128;28;20501;-74
2021/05/09 05:10:20;;;;;;;3.97;1.58;;;15.30;96.70;;;;;;5105532;27;20047;-73
2021/05/09 05:12:48;;;;;;;4.03;1.67;;;15.10;96.70;;;;;;5103279;27;20598;-74
2021/05/09 05:15:16;;;;;;;3.97;1.55;;;15.20;96.70;;;;;;5107392;27;20142;-74
2021/05/09 05:17:45;;;;;;;3.88;1.63;;;15.50;96.70;;;;;;5101428;27;20036;-74
2021/05/09 05:20:15;;;;;;;3.63;1.60;;;15.60;96.70;;;;;;5079892;28;20036;-74
2021/05/09 05:22:43;;;;;;;8.00;2.42;;;15.60;96.70;;;;;;5099394;27;20456;-74
2021/05/09 05:25:12;;;;;;;3.50;1.88;;;15.50;96.70;;;;;;5103113;27;20040;-74
2021/05/09 05:27:40;;;;;;;6.35;2.58;;;15.50;96.70;;;;;;5101700;27;20039;-74
2021/05/09 05:30:09;;;;;;;5.05;2.03;;;15.60;96.70;;;;;;5104027;27;20039;-74
2021/05/09 05:32:40;;;;;;;5.47;2.38;;;15.50;96.70;;;;;;5100379;27;20034;-74
2021/05/09 05:35:09;;;;;;;4.63;2.20;;;15.70;96.70;;;;;;5102492;27;20042;-74
2021/05/09 05:37:37;;;;;;;6.03;2.85;;;15.90;96.70;;;;;;5103941;27;20488;-74
2021/05/09 05:40:06;;;;;;;6.53;2.70;;;15.90;96.70;;;;;;5101127;28;20126;-74
2021/05/09 05:42:34;;;;;;;5.03;2.60;;;15.80;96.70;;;;;;5104419;27;20039;-74
2021/05/09 05:45:02;;;;;;;8.50;2.88;;;16.00;96.70;;;;;;5099432;28;20139;-74
2021/05/09 05:47:29;;;;;;;5.60;2.00;;;16.00;96.70;;;;;;5102600;27;20043;-74
2021/05/09 05:49:58;;;;;;;6.45;1.98;;;16.10;96.70;;;;;;5104632;27;20047;-74
2021/05/09 05:52:27;;;;;;;5.07;2.05;;;15.80;96.70;;;;;;5099466;27;20050;-74
2021/05/09 05:54:55;;;;;;;4.90;1.83;;;15.50;96.70;;;;;;5102960;27;20038;-74
2021/05/09 05:57:23;;;;;;;5.75;2.38;;;15.40;96.70;;;;;;5106275;27;20032;-74
2021/05/09 05:59:51;;;;;;;8.63;2.63;;;15.60;96.70;;;;;;5085048;27;20040;-74
2021/05/09 06:02:18;;;;;;;5.05;1.67;;;15.60;96.70;;;;;;5103615;27;20531;-74
2021/05/09 06:04:46;;;;;;;3.72;1.77;;;15.70;96.70;;;;;;5105121;27;20046;-74
2021/05/09 06:07:14;;;;;;;3.60;1.80;;;16.00;96.70;;;;;;5100277;27;20035;-74
2021/05/09 06:09:44;;;;;;;4.45;1.70;;;16.10;96.70;;;;;;5104864;27;20043;-74
2021/05/09 06:12:12;;;;;;;4.72;1.98;;;16.10;96.70;;;;;;5097128;27;20077;-74
2021/05/09 06:14:40;;;;;;;6.75;2.20;;;16.10;96.70;;;;;;5103242;27;20449;-74
2021/05/09 06:17:08;;;;;;;4.88;1.67;;;16.10;96.70;;;;;;5097761;27;20035;-74
2021/05/09 06:19:36;;;;;;;3.83;1.73;;;16.30;96.70;;;;;;5099420;28;20052;-74
2021/05/09 06:22:04;;;;;;;4.10;1.83;;;16.50;96.70;;;;;;5098655;27;20055;-73
2021/05/09 06:24:31;;;;;;;3.85;1.92;;;16.50;96.70;;;;;;5099907;28;20039;-73
2021/05/09 06:27:00;;;;;;;5.45;1.90;;;16.50;96.70;;;;;;5094857;28;20515;-74
2021/05/09 06:29:28;;;;;;;4.10;1.40;;;16.50;96.70;;;;;;5096736;28;20130;-73
2021/05/09 06:31:56;;;;;;;3.70;1.77;;;16.70;96.70;;;;;;5102350;27;20228;-74
2021/05/09 06:34:24;;;;;;;2.28;1.38;;;16.80;96.70;;;;;;5097390;28;20144;-73
2021/05/09 06:36:52;;;;;;;5.93;2.08;;;16.90;96.70;;;;;;5098710;28;20036;-73
2021/05/09 06:39:25;;;;;;;4.53;1.80;;;17.00;96.70;;;;;;5103021;27;20036;-74
2021/05/09 06:41:57;;;;;;;5.55;1.95;;;17.10;96.70;;;;;;5098494;27;20043;-73
2021/05/09 06:44:29;;;;;;;7.97;1.90;;;17.10;96.70;;;;;;5100509;28;20050;-74
2021/05/09 06:46:59;;;;;;;3.65;1.80;;;17.20;96.70;;;;;;5096656;28;20035;-74
2021/05/09 06:49:27;;;;;;;4.03;2.03;;;17.30;96.70;;;;;;5083486;28;20046;-73
2021/05/09 06:51:56;;;;;;;4.85;1.85;;;17.30;96.70;;;;;;5098251;28;20051;-74
2021/05/09 06:54:25;;;;;;;5.55;2.20;;;17.30;96.70;;;;;;5091880;28;20526;-74
2021/05/09 06:56:53;;;;;;;7.50;2.40;;;17.50;96.70;;;;;;5102324;28;20085;-74
2021/05/09 06:59:21;;;;;;;6.10;2.60;;;17.50;96.70;;;;;;5081567;28;20096;-73
2021/05/09 07:01:50;;;;;;;7.47;2.92;;;17.50;96.70;;;;;;5097443;28;20554;-74
2021/05/09 07:04:17;;;;;;;6.90;2.25;;;17.60;96.70;;;;;;5099643;28;20062;-74
2021/05/09 07:06:45;;;;;;;6.15;2.72;;;17.60;96.70;;;;;;5107117;28;20408;-74
2021/05/09 07:09:13;;;;;;;6.75;2.90;;;17.70;96.70;;;;;;5100730;28;20482;-74
2021/05/09 07:11:41;;;;;;;7.05;2.88;;;17.80;96.70;;;;;;5097125;28;20117;-74
2021/05/09 07:14:09;;;;;;;4.75;2.13;;;17.80;96.70;;;;;;5097886;28;20047;-73
2021/05/09 07:16:36;;;;;;;10.07;1.98;;;17.90;96.70;;;;;;5101662;28;20050;-74
2021/05/09 07:19:08;;;;;;;4.97;1.92;;;17.90;96.70;;;;;;5079500;28;20051;-74
2021/05/09 07:21:48;;;;;;;7.78;2.17;;;18.10;96.70;;;;;;5103620;28;20044;-74
2021/05/09 07:24:16;;;;;;;5.88;2.28;;;18.10;96.70;;;;;;5095054;28;20070;-74
2021/05/09 07:26:45;;;;;;;7.28;2.10;;;18.30;96.70;;;;;;5098882;28;20492;-74
2021/05/09 07:29:13;;;;;;;5.53;2.40;;;18.30;96.70;;;;;;5097546;28;20497;-74
2021/05/09 07:31:41;;;;;;;5.97;2.58;;;18.30;96.70;;;;;;5101396;28;20121;-74
2021/05/09 07:34:10;;;;;;;5.25;2.58;;;18.40;96.70;;;;;;5102373;28;20036;-74
2021/05/09 07:36:39;;;;;;;6.22;2.53;;;18.40;96.70;;;;;;5105348;27;20576;-74
2021/05/09 07:39:07;;;;;;;5.28;2.92;;;18.40;96.70;;;;;;5103940;27;20085;-74
2021/05/09 07:41:35;;;;;;;6.85;2.65;;;18.50;96.70;;;;;;5101640;28;20047;-74
2021/05/09 07:44:05;;;;;;;5.47;2.70;;;18.70;96.70;;;;;;5109370;27;21138;-74
2021/05/09 07:46:32;;;;;;;7.68;3.00;;;18.80;96.70;;;;;;5102346;28;20050;-74
2021/05/09 07:49:00;;;;;;;7.00;2.63;;;18.90;96.70;;;;;;5103207;27;20038;-74
2021/05/09 07:51:29;;;;;;;4.38;1.92;;;18.90;96.70;;;;;;5100482;28;20139;-72
2021/05/09 07:53:57;;;;;;;7.05;2.80;;;18.90;96.70;;;;;;5102494;27;20131;-74
2021/05/09 07:56:24;;;;;;;9.43;2.78;;;19.00;96.70;;;;;;5104504;27;20419;-74
2021/05/09 07:58:52;;;;;;;4.82;2.75;;;19.00;96.70;;;;;;5102896;27;20039;-74
2021/05/09 08:01:20;;;;;;;4.53;2.50;;;19.10;96.70;;;;;;5099333;28;20913;-74
2021/05/09 08:03:48;;;;;;;6.35;2.58;;;19.30;96.70;;;;;;5110421;27;20100;-74
2021/05/09 08:06:16;;;;;;;6.05;2.53;;;19.40;96.70;;;;;;5106242;27;20036;-74
2021/05/09 08:08:45;;;;;;;8.45;2.60;;;19.50;96.70;;;;;;5081752;27;20078;-74
2021/05/09 08:11:13;;;;;;;7.53;2.30;;;19.50;96.70;;;;;;5105703;27;20039;-76
2021/05/09 08:13:41;;;;;;;6.80;2.60;;;19.50;96.70;;;;;;5106216;27;20027;-74
2021/05/09 08:16:09;;;;;;;7.45;2.70;;;19.60;96.70;;;;;;5101921;27;20035;-74
2021/05/09 08:18:37;;;;;;;5.20;1.90;;;19.60;96.70;;;;;;5092984;27;20112;-75
2021/05/09 08:21:05;;;;;;;5.88;1.92;;;19.80;96.70;;;;;;5097798;27;20047;-73
2021/05/09 08:23:35;;;;;;;6.63;2.22;;;19.90;96.70;;;;;;5090316;28;20043;-73
2021/05/09 08:26:04;;;;;;;5.85;2.13;;;20.00;96.70;;;;;;5107144;27;20040;-74
2021/05/09 08:28:32;;;;;;;6.82;2.30;;;20.10;96.70;;;;;;5104901;27;20462;-75
2021/05/09 08:31:00;;;;;;;5.80;2.20;;;20.20;96.70;;;;;;5101982;27;20039;-75
2021/05/09 08:33:27;;;;;;;5.38;1.90;;;20.40;96.70;;;;;;5102123;27;20568;-75
2021/05/09 08:35:55;;;;;;;4.90;1.85;;;20.50;96.70;;;;;;5089337;27;20552;-76
2021/05/09 08:38:24;;;;;;;5.53;2.67;;;20.50;96.70;;;;;;5096990;28;20054;-76
2021/05/09 08:40:52;;;;;;;6.32;1.90;;;20.60;96.70;;;;;;5098779;27;20036;-77
2021/05/09 08:43:21;;;;;;;5.97;1.80;;;20.70;96.70;;;;;;5097977;27;20043;-76
2021/05/09 08:45:49;;;;;;;7.47;2.40;;;20.70;96.70;;;;;;5095967;27;20054;-77
2021/05/09 08:48:20;;;;;;;5.55;2.05;;;20.90;96.70;;;;;;5101135;27;20044;-75
2021/05/09 08:50:49;;;;;;;5.10;2.55;;;20.80;96.70;;;;;;5103181;27;20043;-75
2021/05/09 08:53:17;;;;;;;4.88;1.67;;;20.90;96.70;;;;;;5090194;28;20160;-74
2021/05/09 08:55:46;;;;;;;4.35;2.30;;;21.00;96.70;;;;;;5100620;27;20047;-75
2021/05/09 08:58:15;;;;;;;7.13;1.98;;;21.10;96.70;;;;;;5102948;27;20478;-75
2021/05/09 09:00:44;;;;;;;6.05;1.90;;;21.20;95.60;;;;;;5084670;28;20043;-74
2021/05/09 09:03:14;;;;;;;4.80;1.85;;;21.20;95.80;;;;;;5103896;27;20151;-76
2021/05/09 09:05:44;;;;;;;5.80;2.35;;;21.30;95.90;;;;;;5101822;27;20412;-74
2021/05/09 09:08:17;;;;;;;5.80;1.67;;;21.30;95.70;;;;;;5101534;28;20130;-75
2021/05/09 09:10:46;;;;;;;3.83;1.70;;;21.50;95.90;;;;;;5102741;27;20043;-74
2021/05/09 09:13:22;;;;;;;4.63;1.67;;;21.50;95.30;;;;;;5101171;27;20123;-74
2021/05/09 09:15:54;;;;;;;5.95;1.83;;;21.60;95.30;;;;;;5103834;27;20043;-74
2021/05/09 09:18:27;;;;;;;5.45;1.83;;;21.70;94.50;;;;;;5097261;28;20063;-74
2021/05/09 09:20:55;;;;;;;4.68;1.60;;;21.70;94.00;;;;;;5105215;27;20684;-75
2021/05/09 09:23:23;;;;;;;4.80;2.03;;;21.90;94.20;;;;;;5104616;27;20050;-75
2021/05/09 09:25:51;;;;;;;4.78;2.15;;;22.00;93.40;;;;;;5080666;28;20601;-75
2021/05/09 09:28:20;;;;;;;8.07;2.22;;;22.10;93.40;;;;;;5098697;28;20040;-75
2021/05/09 09:30:50;;;;;;;5.63;1.77;;;21.90;92.60;;;;;;5082861;28;20048;-76
2021/05/09 09:33:20;;;;;;;7.10;1.90;;;21.80;93.50;;;;;;5096875;28;20058;-75
2021/05/09 09:35:54;;;;;;;6.60;1.98;;;21.90;94.40;;;;;;5104751;27;20047;-76
2021/05/09 09:38:27;;;;;;;6.82;2.20;;;22.00;93.70;;;;;;5098690;27;20043;-76
2021/05/09 09:41:13;;;;;;;5.72;2.08;;;22.20;93.80;;;;;;5099869;28;20101;-77
2021/05/09 09:43:42;;;;;;;5.03;1.23;;;22.30;92.90;;;;;;5103809;27;20550;-75
2021/05/09 09:46:31;;;;;;;5.28;1.73;;;22.40;92.70;;;;;;5104828;27;20085;-76
2021/05/09 09:49:00;;;;;;;6.95;1.90;;;22.50;92.40;;;;;;5104901;27;20127;-77
2021/05/09 09:51:29;;;;;;;4.43;1.77;;;22.70;92.60;;;;;;5099183;28;20058;-77
2021/05/09 09:54:01;;;;;;;4.00;1.67;;;22.80;92.00;;;;;;5119093;27;20416;-77
2021/05/09 09:56:29;;;;;;;4.72;1.85;;;22.90;91.80;;;;;;5099030;27;20048;-77
2021/05/09 09:58:59;;;;;;;5.20;1.60;;;22.90;90.90;;;;;;5104672;27;20104;-77
2021/05/09 10:01:28;;;;;;;4.47;1.73;;;22.80;91.20;;;;;;5102878;27;20504;-77
2021/05/09 10:04:03;;;;;;;6.78;1.80;;;22.90;91.10;;;;;;5101178;27;20052;-77
2021/05/09 10:06:34;;;;;;;3.78;1.58;;;22.90;90.60;;;;;;5099893;27;20438;-77
2021/05/09 10:09:02;;;;;;;6.57;1.90;;;22.90;90.60;;;;;;5099482;28;20405;-77
2021/05/09 10:11:35;;;;;;;4.00;1.73;;;22.80;89.90;;;;;;5103745;27;20046;-77
2021/05/09 10:14:05;;;;;;;5.25;1.80;;;23.10;90.50;;;;;;5100747;27;20387;-77
2021/05/09 10:16:41;;;;;;;2.47;1.35;;;23.60;89.40;;;;;;5103922;27;20387;-77
2021/05/09 10:19:13;;;;;;;5.53;1.55;;;23.70;88.70;;;;;;5104506;27;20031;-77
2021/05/09 10:21:42;;;;;;;4.43;1.50;;;23.60;88.60;;;;;;5086126;27;20531;-77
2021/05/09 10:24:12;;;;;;;6.45;2.08;;;23.70;88.50;;;;;;5097470;28;20142;-77
2021/05/09 10:26:49;;;;;;;5.55;1.88;;;23.90;88.60;;;;;;5104271;27;20035;-77
2021/05/09 10:29:48;;;;;;;9.15;2.30;;;24.10;88.10;;;;;;5099404;28;20062;-77
2021/05/09 10:32:45;;;;;;;5.60;2.28;;;24.10;87.60;;;;;;5103518;27;20263;-77
2021/05/09 10:35:16;;;;;;;3.33;1.50;;;24.00;87.20;;;;;;5102094;27;20042;-77
2021/05/09 10:38:07;;;;;;;4.78;1.33;;;24.10;86.90;;;;;;5102781;27;20043;-77
2021/05/09 10:40:42;;;;;;;4.35;1.80;;;24.20;87.30;;;;;;5098762;27;20074;-77
2021/05/09 10:43:38;;;;;;;4.90;1.70;;;24.60;86.80;;;;;;5102529;27;20493;-77
2021/05/09 10:46:07;;;;;;;3.58;1.60;;;24.60;84.90;;;;;;5101566;27;20576;-77
2021/05/09 10:48:35;;;;;;;6.10;2.38;;;24.70;84.70;;;;;;5099236;27;20039;-77
2021/05/09 10:51:28;;;;;;;6.32;1.55;;;24.80;85.00;;;;;;5097195;28;20044;-77
2021/05/09 10:54:15;;;;;;;3.25;1.50;;;24.70;84.50;;;;;;5102328;28;20067;-77
2021/05/09 10:56:43;;;;;;;5.28;2.40;;;24.80;84.60;;;;;;5100296;28;20401;-77
2021/05/09 10:59:10;;;;;;;6.43;2.10;;;25.00;84.50;;;;;;5099662;28;20960;-77
2021/05/09 11:01:38;;;;;;;4.55;1.77;;;25.10;84.40;;;;;;5104627;28;20039;-77
2021/05/09 11:04:07;;;;;;;4.55;1.45;;;25.50;84.60;;;;;;5100481;28;20043;-77
2021/05/09 11:06:40;;;;;;;5.30;2.05;;;25.70;83.70;;;;;;5101990;27;20112;-77
2021/05/09 11:09:10;;;;;;;4.80;1.63;;;25.90;83.20;;;;;;5104214;27;20035;-77
2021/05/09 11:12:11;;;;;;;3.50;1.73;;;25.90;82.70;;;;;;5114857;27;20365;-77
2021/05/09 11:14:39;;;;;;;6.25;1.60;;;25.70;82.80;;;;;;5101280;27;20122;-78
2021/05/09 11:17:17;;;;;;;6.45;1.92;;;25.50;83.10;;;;;;5109149;27;20609;-77
2021/05/09 11:19:49;;;;;;;5.70;1.83;;;25.50;83.40;;;;;;5102901;27;20135;-77
2021/05/09 11:22:23;;;;;;;3.13;1.35;;;25.70;83.80;;;;;;5109032;27;20047;-78
2021/05/09 11:24:59;;;;;;;6.18;1.60;;;25.80;81.90;;;;;;5106008;27;20047;-77
2021/05/09 11:27:28;;;;;;;;;;;26.10;82.80;;;;;;5106975;27;20046;-77
2021/05/09 11:29:57;;;;;;;4.88;1.70;;;26.20;81.60;;;;;;5104392;27;19923;-77
2021/05/09 11:32:25;;;;;;;5.30;1.92;;;26.20;80.90;;;;;;5101590;27;20851;-77
2021/05/09 11:35:00;;;;;;;6.32;1.67;;;26.00;81.20;;;;;;5103126;27;20046;-77
2021/05/09 11:37:33;;;;;;;5.95;1.90;;;25.80;82.20;;;;;;5086226;28;20054;-77
2021/05/09 11:40:05;;;;;;;5.50;1.55;;;25.70;82.40;;;;;;5109036;27;20115;-78
2021/05/09 11:42:33;;;;;;;4.60;1.83;;;25.90;82.00;;;;;;5092914;27;20048;-77
2021/05/09 11:45:01;;;;;;;4.07;1.55;;;26.10;81.00;;;;;;5083441;28;20046;-77
2021/05/09 11:47:31;;;;;;;6.07;1.45;;;26.20;81.80;;;;;;5081379;28;20042;-77
2021/05/09 11:50:03;;;;;;;3.67;1.80;;;26.30;81.20;;;;;;5110223;27;20098;-77
2021/05/09 11:52:35;;;;;;;4.97;1.38;;;26.50;81.70;;;;;;5100840;27;20501;-77
2021/05/09 11:55:05;;;;;;;4.65;1.60;;;26.70;81.10;;;;;;5109016;27;20043;-77
2021/05/09 11:57:34;;;;;;;5.28;1.90;;;26.80;80.90;;;;;;5099119;27;20066;-77
2021/05/09 12:00:06;;;;;;;5.82;1.40;;;26.90;79.70;;;;;;5100882;27;20502;-77
2021/05/09 12:02:35;;;;;;;3.70;1.67;;;26.90;79.80;;;;;;5101986;27;20497;-77
2021/05/09 12:05:11;;;;;;;6.28;1.73;;;27.10;79.50;;;;;;5106538;27;20084;-77
2021/05/09 12:07:49;;;;;;;;;;;27.20;78.90;;;;;;5103647;27;20027;-77
2021/05/09 12:10:25;;;;;;;2.55;1.35;;;27.20;79.10;;;;;;5101913;27;19928;-77
2021/05/09 12:12:56;;;;;;;2.70;1.20;;;27.00;79.60;;;;;;5104349;27;20434;-78
2021/05/09 12:15:24;;;;;;;3.95;1.60;;;27.20;79.40;;;;;;5103983;27;20061;-77
2021/05/09 12:17:54;;;;;;;4.28;1.60;;;27.10;78.90;;;;;;5104367;27;20476;-77
2021/05/09 12:20:30;;;;;;;9.30;1.73;;;27.10;78.70;;;;;;5100748;27;20047;-78
2021/05/09 12:23:01;;;;;;;5.82;1.65;;;27.20;78.90;;;;;;5088614;27;20428;-78
2021/05/09 12:25:31;;;;;;;3.28;1.05;;;27.30;78.10;;;;;;5106804;27;20043;-78
2021/05/09 12:28:11;;;;;;;4.95;1.20;;;27.50;77.80;;;;;;5088668;27;20061;-77
2021/05/09 12:30:40;;;;;;;5.60;1.50;;;27.10;78.30;;;;;;5099318;27;20266;-77
2021/05/09 12:33:08;;;;;;;3.78;1.15;;;26.90;78.40;;;;;;5109732;27;20043;-78
2021/05/09 12:35:46;;;;;;;6.97;1.80;;;27.20;78.00;;;;;;5095146;27;20040;-77
2021/05/09 12:38:26;;;;;;;3.78;1.40;;;27.30;78.10;;;;;;5105353;27;20040;-77
2021/05/09 12:41:05;;;;;;;4.85;1.80;;;27.70;78.00;;;;;;5100018;27;20048;-77
2021/05/09 12:43:47;;;;;;;4.85;1.80;;;28.00;77.20;;;;;;5086369;27;20050;-78
2021/05/09 12:46:33;;;;;;;3.22;1.13;;;27.90;76.80;;;;;;5103166;27;20031;-77
2021/05/09 12:49:09;;;;;;;3.67;1.70;;;27.70;78.10;;;;;;5101834;27;20031;-78
2021/05/09 12:51:52;;;;;;;3.83;1.20;;;27.80;77.70;;;;;;5106875;27;20067;-78
2021/05/09 12:54:35;;;;;;;5.10;1.50;;;27.80;77.50;;;;;;5104244;27;20355;-77
2021/05/09 12:57:30;;;;;;;4.18;1.35;;;28.00;78.20;;;;;;5110722;27;20043;-77
2021/05/09 13:00:02;;;;;;;2.88;1.20;;;28.20;77.00;;;;;;5103619;27;20167;-77
2021/05/09 13:02:42;;;;;;;4.38;1.80;;;28.00;76.30;;;;;;5103755;27;20039;-78
2021/05/09 13:05:15;;;;;;;4.18;1.35;;;28.00;76.80;;;;;;5106221;27;20118;-78
2021/05/09 13:07:45;;;;;;;3.53;1.58;;;27.90;76.10;;;;;;5103388;27;20100;-78